Aeroporto :
LOGIN :

Iscrizione | Disclaimer

   EN    FR    IT 

 










Sommario :    VFR   VFR Marginale   IFR   IFR Intensivo   IFR Molto Intensivo
Visibilità : 
Base nubi : 
>= 8 km
>= 3000ft
5 / 8 km
1000 / 3000 ft
1500m / 5 km
500 / 1000 ft
800 / 1500m
200 / 500 ft
< 800m
< 200 ft
Simboli :   Temporali  Nebbia  Neve Forte  Precipitazioni Forti  Vento > 20 kt
SIGMETs :   Varie  Temporali  Ghiacco  Turbolenza  Onda orograficha  Ceneri Vulcaniche






- Altitudine del aeroporto : 1299 ft


EDTY - Adolf Würth

ULTIMO METAR :
  • 171420Z 35003KT 3100 BR -RA OVC003 05/04 Q1002

METARs OBSOLETI :
  • 171350Z 03004KT 360V060 3800 BR OVC003 05/05 Q1002
  • 171320Z 04004KT 4400 BR OVC003 05/04 Q1002
  • 171250Z 01004KT 340V060 5000 BR OVC004 05/04 Q1003
  • 171220Z 36004KT 4800 BR OVC004 04/04 Q1003
  • 171150Z 02004KT 4700 BR OVC005 04/04 Q1003

TAF TAF EDTY
Valido dal 17 a 15 ore il 18 a 00 ore UTC


171400Z 1715/1724 35005KT 3000 -RA OVC003
TEMPO 1715/1724 2000 BR
PROB30
TEMPO 1715/1718 BKN005



MetMap, La meteo Aeronautica in un colpo d'occhio ! - Copyright ORBIFLY Dicembre 2007 - Disclaimer

ORBIFLY MET'MAP TEAM :

Programmazione e sviluppo : Alexandra Zaïnal
Concezione e sviluppo : Baudouin d'Aumeries
Co-Programmazione e sviluppo : Marc-Olivier Méhu
Supporto tecnico e logistico : Manuel Goepfert
Aiuto per la traduzione : Arnaldo La Scala

Contatto : metmap@orbifly.com




FONTI E CREDITI :

   NOAA